sensor_id;sensor_type;location;lat;lon;timestamp;P1;durP1;ratioP1;P2;durP2;ratioP2
29814;SDS011;16708;50.426;7.664;2024-01-11T00:00:01;53.90;;;18.00;;
29814;SDS011;16708;50.426;7.664;2024-01-11T00:04:55;58.90;;;19.20;;
29814;SDS011;16708;50.426;7.664;2024-01-11T00:09:49;53.40;;;18.00;;
29814;SDS011;16708;50.426;7.664;2024-01-11T00:14:44;48.90;;;17.70;;
29814;SDS011;16708;50.426;7.664;2024-01-11T00:19:38;50.60;;;17.00;;
29814;SDS011;16708;50.426;7.664;2024-01-11T00:24:32;54.60;;;17.30;;
29814;SDS011;16708;50.426;7.664;2024-01-11T00:39:07;54.60;;;17.90;;
29814;SDS011;16708;50.426;7.664;2024-01-11T00:44:02;59.50;;;18.70;;
29814;SDS011;16708;50.426;7.664;2024-01-11T00:48:56;69.70;;;19.90;;
29814;SDS011;16708;50.426;7.664;2024-01-11T00:53:51;102.50;;;26.20;;
29814;SDS011;16708;50.426;7.664;2024-01-11T00:58:45;73.50;;;22.00;;
29814;SDS011;16708;50.426;7.664;2024-01-11T01:27:57;47.30;;;15.50;;
29814;SDS011;16708;50.426;7.664;2024-01-11T02:11:47;44.90;;;15.60;;
29814;SDS011;16708;50.426;7.664;2024-01-11T02:16:41;48.10;;;16.80;;
29814;SDS011;16708;50.426;7.664;2024-01-11T02:21:33;53.10;;;17.30;;
29814;SDS011;16708;50.426;7.664;2024-01-11T02:26:27;47.60;;;16.60;;
29814;SDS011;16708;50.426;7.664;2024-01-11T02:41:03;44.50;;;15.10;;
29814;SDS011;16708;50.426;7.664;2024-01-11T02:55:40;46.20;;;14.90;;
29814;SDS011;16708;50.426;7.664;2024-01-11T03:10:15;47.70;;;15.30;;
29814;SDS011;16708;50.426;7.664;2024-01-11T03:15:09;45.40;;;15.40;;
29814;SDS011;16708;50.426;7.664;2024-01-11T03:29:39;41.10;;;14.40;;
29814;SDS011;16708;50.426;7.664;2024-01-11T03:44:14;40.00;;;14.40;;
29814;SDS011;16708;50.426;7.664;2024-01-11T03:49:08;44.80;;;15.50;;
29814;SDS011;16708;50.426;7.664;2024-01-11T04:03:38;39.90;;;14.00;;
29814;SDS011;16708;50.426;7.664;2024-01-11T04:18:15;39.50;;;13.40;;
29814;SDS011;16708;50.426;7.664;2024-01-11T04:23:09;38.30;;;13.00;;
29814;SDS011;16708;50.426;7.664;2024-01-11T05:06:42;39.00;;;11.70;;
29814;SDS011;16708;50.426;7.664;2024-01-11T05:21:20;35.80;;;11.60;;
29814;SDS011;16708;50.426;7.664;2024-01-11T05:35:56;36.90;;;11.50;;
29814;SDS011;16708;50.426;7.664;2024-01-11T05:50:32;33.20;;;10.80;;
29814;SDS011;16708;50.426;7.664;2024-01-11T06:05:09;35.70;;;12.40;;
29814;SDS011;16708;50.426;7.664;2024-01-11T06:19:47;36.90;;;12.30;;
29814;SDS011;16708;50.426;7.664;2024-01-11T06:34:33;38.00;;;12.50;;
29814;SDS011;16708;50.426;7.664;2024-01-11T06:49:08;48.60;;;15.80;;
29814;SDS011;16708;50.426;7.664;2024-01-11T07:03:45;37.60;;;12.20;;
29814;SDS011;16708;50.426;7.664;2024-01-11T07:33:01;43.70;;;15.30;;
29814;SDS011;16708;50.426;7.664;2024-01-11T08:02:21;37.60;;;13.60;;
29814;SDS011;16708;50.426;7.664;2024-01-11T08:17:08;61.60;;;20.30;;
29814;SDS011;16708;50.426;7.664;2024-01-11T08:31:43;51.30;;;17.80;;
29814;SDS011;16708;50.426;7.664;2024-01-11T08:46:21;52.80;;;18.20;;
29814;SDS011;16708;50.426;7.664;2024-01-11T08:51:16;69.10;;;20.40;;
29814;SDS011;16708;50.426;7.664;2024-01-11T08:56:10;65.00;;;21.70;;
29814;SDS011;16708;50.426;7.664;2024-01-11T09:10:48;56.40;;;19.20;;
29814;SDS011;16708;50.426;7.664;2024-01-11T09:15:44;56.50;;;19.40;;
29814;SDS011;16708;50.426;7.664;2024-01-11T09:20:39;48.10;;;17.60;;
29814;SDS011;16708;50.426;7.664;2024-01-11T09:25:34;55.90;;;19.00;;
29814;SDS011;16708;50.426;7.664;2024-01-11T09:30:30;40.90;;;16.30;;
29814;SDS011;16708;50.426;7.664;2024-01-11T09:35:25;41.80;;;17.00;;
29814;SDS011;16708;50.426;7.664;2024-01-11T09:40:19;49.50;;;16.80;;
29814;SDS011;16708;50.426;7.664;2024-01-11T09:45:13;43.30;;;16.40;;
29814;SDS011;16708;50.426;7.664;2024-01-11T09:50:08;41.70;;;16.40;;
29814;SDS011;16708;50.426;7.664;2024-01-11T09:55:03;41.80;;;16.50;;
29814;SDS011;16708;50.426;7.664;2024-01-11T09:59:58;40.70;;;16.90;;
29814;SDS011;16708;50.426;7.664;2024-01-11T10:04:53;35.80;;;15.60;;
29814;SDS011;16708;50.426;7.664;2024-01-11T10:09:48;37.40;;;16.30;;
29814;SDS011;16708;50.426;7.664;2024-01-11T10:19:38;37.40;;;16.30;;
29814;SDS011;16708;50.426;7.664;2024-01-11T10:29:27;33.70;;;16.40;;
29814;SDS011;16708;50.426;7.664;2024-01-11T10:34:22;33.40;;;15.90;;
29814;SDS011;16708;50.426;7.664;2024-01-11T10:39:17;34.20;;;16.50;;
29814;SDS011;16708;50.426;7.664;2024-01-11T10:44:11;33.70;;;16.60;;
29814;SDS011;16708;50.426;7.664;2024-01-11T10:49:06;39.80;;;17.60;;
29814;SDS011;16708;50.426;7.664;2024-01-11T10:54:01;39.00;;;17.40;;
29814;SDS011;16708;50.426;7.664;2024-01-11T10:58:55;40.20;;;17.90;;
29814;SDS011;16708;50.426;7.664;2024-01-11T11:03:49;34.40;;;17.80;;
29814;SDS011;16708;50.426;7.664;2024-01-11T11:08:44;40.60;;;19.50;;
29814;SDS011;16708;50.426;7.664;2024-01-11T11:18:34;41.70;;;20.90;;
29814;SDS011;16708;50.426;7.664;2024-01-11T11:28:23;37.50;;;20.00;;
29814;SDS011;16708;50.426;7.664;2024-01-11T11:33:18;40.80;;;20.70;;
29814;SDS011;16708;50.426;7.664;2024-01-11T11:43:07;41.40;;;21.00;;
29814;SDS011;16708;50.426;7.664;2024-01-11T11:52:55;39.60;;;20.70;;
29814;SDS011;16708;50.426;7.664;2024-01-11T11:57:50;41.10;;;21.40;;
29814;SDS011;16708;50.426;7.664;2024-01-11T12:02:44;38.90;;;21.30;;
29814;SDS011;16708;50.426;7.664;2024-01-11T12:07:38;39.00;;;21.60;;
29814;SDS011;16708;50.426;7.664;2024-01-11T12:12:35;42.10;;;22.70;;
29814;SDS011;16708;50.426;7.664;2024-01-11T12:17:28;42.60;;;22.30;;
29814;SDS011;16708;50.426;7.664;2024-01-11T12:22:21;36.60;;;21.10;;
29814;SDS011;16708;50.426;7.664;2024-01-11T12:27:15;41.00;;;21.60;;
29814;SDS011;16708;50.426;7.664;2024-01-11T12:32:09;38.00;;;21.60;;
29814;SDS011;16708;50.426;7.664;2024-01-11T12:37:04;37.50;;;20.90;;
29814;SDS011;16708;50.426;7.664;2024-01-11T12:46:53;39.50;;;22.60;;
29814;SDS011;16708;50.426;7.664;2024-01-11T12:51:47;37.10;;;22.20;;
29814;SDS011;16708;50.426;7.664;2024-01-11T13:01:35;41.40;;;24.60;;
29814;SDS011;16708;50.426;7.664;2024-01-11T13:06:29;42.90;;;23.40;;
29814;SDS011;16708;50.426;7.664;2024-01-11T13:11:24;39.60;;;22.80;;
29814;SDS011;16708;50.426;7.664;2024-01-11T13:16:18;40.80;;;22.70;;
29814;SDS011;16708;50.426;7.664;2024-01-11T13:21:12;40.10;;;22.70;;
29814;SDS011;16708;50.426;7.664;2024-01-11T13:26:06;38.60;;;22.90;;
29814;SDS011;16708;50.426;7.664;2024-01-11T13:31:01;39.30;;;21.60;;
29814;SDS011;16708;50.426;7.664;2024-01-11T13:35:55;38.10;;;21.50;;
29814;SDS011;16708;50.426;7.664;2024-01-11T13:40:47;40.00;;;23.40;;
29814;SDS011;16708;50.426;7.664;2024-01-11T13:45:41;40.80;;;22.60;;
29814;SDS011;16708;50.426;7.664;2024-01-11T13:50:35;40.30;;;22.50;;
29814;SDS011;16708;50.426;7.664;2024-01-11T13:55:29;38.70;;;22.90;;
29814;SDS011;16708;50.426;7.664;2024-01-11T14:00:23;41.90;;;23.80;;
29814;SDS011;16708;50.426;7.664;2024-01-11T14:05:17;40.70;;;22.30;;
29814;SDS011;16708;50.426;7.664;2024-01-11T14:10:11;40.30;;;22.50;;
29814;SDS011;16708;50.426;7.664;2024-01-11T14:15:02;36.50;;;21.40;;
29814;SDS011;16708;50.426;7.664;2024-01-11T14:19:57;38.90;;;22.20;;
29814;SDS011;16708;50.426;7.664;2024-01-11T14:29:44;43.80;;;21.50;;
29814;SDS011;16708;50.426;7.664;2024-01-11T14:34:37;38.10;;;21.80;;
29814;SDS011;16708;50.426;7.664;2024-01-11T14:44:25;39.70;;;21.70;;
29814;SDS011;16708;50.426;7.664;2024-01-11T14:49:19;41.50;;;22.00;;
29814;SDS011;16708;50.426;7.664;2024-01-11T14:54:13;38.70;;;21.40;;
29814;SDS011;16708;50.426;7.664;2024-01-11T14:59:06;41.10;;;21.30;;
29814;SDS011;16708;50.426;7.664;2024-01-11T15:03:59;43.40;;;21.60;;
29814;SDS011;16708;50.426;7.664;2024-01-11T15:08:52;40.10;;;20.20;;
29814;SDS011;16708;50.426;7.664;2024-01-11T15:13:46;41.60;;;19.50;;
29814;SDS011;16708;50.426;7.664;2024-01-11T15:18:39;41.50;;;19.40;;
29814;SDS011;16708;50.426;7.664;2024-01-11T15:23:32;42.40;;;20.10;;
29814;SDS011;16708;50.426;7.664;2024-01-11T15:28:25;43.60;;;19.80;;
29814;SDS011;16708;50.426;7.664;2024-01-11T15:33:18;43.00;;;19.30;;
29814;SDS011;16708;50.426;7.664;2024-01-11T15:38:12;47.10;;;20.60;;
29814;SDS011;16708;50.426;7.664;2024-01-11T15:43:05;44.70;;;19.70;;
29814;SDS011;16708;50.426;7.664;2024-01-11T15:47:59;44.60;;;18.90;;
29814;SDS011;16708;50.426;7.664;2024-01-11T15:52:53;48.30;;;19.40;;
29814;SDS011;16708;50.426;7.664;2024-01-11T15:57:47;59.70;;;23.40;;
29814;SDS011;16708;50.426;7.664;2024-01-11T16:02:40;120.10;;;44.00;;
29814;SDS011;16708;50.426;7.664;2024-01-11T16:07:34;91.00;;;32.30;;
29814;SDS011;16708;50.426;7.664;2024-01-11T16:12:28;78.70;;;27.90;;
29814;SDS011;16708;50.426;7.664;2024-01-11T16:17:22;77.50;;;26.50;;
29814;SDS011;16708;50.426;7.664;2024-01-11T16:22:15;75.70;;;31.50;;
29814;SDS011;16708;50.426;7.664;2024-01-11T16:27:07;73.80;;;27.90;;
29814;SDS011;16708;50.426;7.664;2024-01-11T16:32:01;59.40;;;24.20;;
29814;SDS011;16708;50.426;7.664;2024-01-11T16:36:55;57.20;;;22.70;;
29814;SDS011;16708;50.426;7.664;2024-01-11T16:41:49;56.60;;;22.00;;
29814;SDS011;16708;50.426;7.664;2024-01-11T16:46:43;64.10;;;23.40;;
29814;SDS011;16708;50.426;7.664;2024-01-11T16:51:37;66.60;;;25.30;;
29814;SDS011;16708;50.426;7.664;2024-01-11T16:56:30;63.80;;;25.40;;
29814;SDS011;16708;50.426;7.664;2024-01-11T17:01:24;61.50;;;23.20;;
29814;SDS011;16708;50.426;7.664;2024-01-11T17:06:17;64.90;;;23.20;;
29814;SDS011;16708;50.426;7.664;2024-01-11T17:11:11;65.30;;;26.90;;
29814;SDS011;16708;50.426;7.664;2024-01-11T17:16:05;66.40;;;27.60;;
29814;SDS011;16708;50.426;7.664;2024-01-11T17:20:59;68.10;;;25.80;;
29814;SDS011;16708;50.426;7.664;2024-01-11T17:25:53;74.60;;;28.30;;
29814;SDS011;16708;50.426;7.664;2024-01-11T17:30:46;65.90;;;24.70;;
29814;SDS011;16708;50.426;7.664;2024-01-11T17:40:34;72.60;;;26.10;;
29814;SDS011;16708;50.426;7.664;2024-01-11T17:45:27;68.50;;;24.80;;
29814;SDS011;16708;50.426;7.664;2024-01-11T17:50:20;60.30;;;24.10;;
29814;SDS011;16708;50.426;7.664;2024-01-11T17:55:13;61.10;;;23.70;;
29814;SDS011;16708;50.426;7.664;2024-01-11T18:00:07;70.90;;;27.40;;
29814;SDS011;16708;50.426;7.664;2024-01-11T18:04:58;66.20;;;26.30;;
29814;SDS011;16708;50.426;7.664;2024-01-11T18:09:52;61.00;;;24.90;;
29814;SDS011;16708;50.426;7.664;2024-01-11T18:14:45;67.00;;;25.60;;
29814;SDS011;16708;50.426;7.664;2024-01-11T18:19:36;76.30;;;25.60;;
29814;SDS011;16708;50.426;7.664;2024-01-11T18:24:29;70.60;;;25.80;;
29814;SDS011;16708;50.426;7.664;2024-01-11T18:29:23;67.60;;;25.10;;
29814;SDS011;16708;50.426;7.664;2024-01-11T18:34:15;63.10;;;25.10;;
29814;SDS011;16708;50.426;7.664;2024-01-11T18:39:10;73.10;;;26.30;;
29814;SDS011;16708;50.426;7.664;2024-01-11T18:44:01;81.40;;;31.10;;
29814;SDS011;16708;50.426;7.664;2024-01-11T18:48:55;96.40;;;39.10;;
29814;SDS011;16708;50.426;7.664;2024-01-11T18:53:47;75.40;;;29.50;;
29814;SDS011;16708;50.426;7.664;2024-01-11T18:58:38;79.40;;;29.30;;
29814;SDS011;16708;50.426;7.664;2024-01-11T19:03:31;77.30;;;29.50;;
29814;SDS011;16708;50.426;7.664;2024-01-11T19:08:22;79.90;;;29.70;;
29814;SDS011;16708;50.426;7.664;2024-01-11T19:13:16;85.70;;;31.80;;
29814;SDS011;16708;50.426;7.664;2024-01-11T19:18:10;82.30;;;30.50;;
29814;SDS011;16708;50.426;7.664;2024-01-11T19:23:03;102.80;;;37.10;;
29814;SDS011;16708;50.426;7.664;2024-01-11T19:27:57;82.10;;;30.60;;
29814;SDS011;16708;50.426;7.664;2024-01-11T19:32:49;73.10;;;28.50;;
29814;SDS011;16708;50.426;7.664;2024-01-11T19:37:43;76.90;;;30.00;;
29814;SDS011;16708;50.426;7.664;2024-01-11T19:42:37;80.00;;;30.80;;
29814;SDS011;16708;50.426;7.664;2024-01-11T19:47:27;91.30;;;33.80;;
29814;SDS011;16708;50.426;7.664;2024-01-11T19:52:21;100.30;;;35.30;;
29814;SDS011;16708;50.426;7.664;2024-01-11T19:57:12;90.60;;;34.20;;
29814;SDS011;16708;50.426;7.664;2024-01-11T20:02:05;81.90;;;30.80;;
29814;SDS011;16708;50.426;7.664;2024-01-11T20:06:58;86.30;;;31.10;;
29814;SDS011;16708;50.426;7.664;2024-01-11T20:11:52;78.10;;;31.20;;
29814;SDS011;16708;50.426;7.664;2024-01-11T20:16:44;82.60;;;30.10;;
29814;SDS011;16708;50.426;7.664;2024-01-11T20:21:37;77.50;;;30.30;;
29814;SDS011;16708;50.426;7.664;2024-01-11T20:26:30;92.10;;;32.90;;
29814;SDS011;16708;50.426;7.664;2024-01-11T20:31:22;78.80;;;30.10;;
29814;SDS011;16708;50.426;7.664;2024-01-11T20:36:16;77.20;;;30.00;;
29814;SDS011;16708;50.426;7.664;2024-01-11T20:41:09;92.00;;;33.20;;
29814;SDS011;16708;50.426;7.664;2024-01-11T20:50:55;79.90;;;29.20;;
29814;SDS011;16708;50.426;7.664;2024-01-11T20:55:48;79.90;;;29.90;;
29814;SDS011;16708;50.426;7.664;2024-01-11T21:00:42;67.50;;;27.10;;
29814;SDS011;16708;50.426;7.664;2024-01-11T21:05:34;108.00;;;39.10;;
29814;SDS011;16708;50.426;7.664;2024-01-11T21:10:29;104.80;;;36.40;;
29814;SDS011;16708;50.426;7.664;2024-01-11T21:15:23;98.80;;;36.20;;
29814;SDS011;16708;50.426;7.664;2024-01-11T21:20:17;97.30;;;33.60;;
29814;SDS011;16708;50.426;7.664;2024-01-11T21:25:11;90.90;;;33.10;;
29814;SDS011;16708;50.426;7.664;2024-01-11T21:30:06;97.30;;;33.20;;
29814;SDS011;16708;50.426;7.664;2024-01-11T21:35:00;86.20;;;32.70;;
29814;SDS011;16708;50.426;7.664;2024-01-11T21:39:54;74.80;;;29.50;;
29814;SDS011;16708;50.426;7.664;2024-01-11T21:44:48;85.00;;;30.60;;
29814;SDS011;16708;50.426;7.664;2024-01-11T21:49:42;83.30;;;29.60;;
29814;SDS011;16708;50.426;7.664;2024-01-11T21:54:36;67.80;;;26.10;;
29814;SDS011;16708;50.426;7.664;2024-01-11T21:59:30;71.00;;;26.80;;
29814;SDS011;16708;50.426;7.664;2024-01-11T22:04:25;69.10;;;24.70;;
29814;SDS011;16708;50.426;7.664;2024-01-11T22:09:18;84.20;;;29.50;;
29814;SDS011;16708;50.426;7.664;2024-01-11T22:14:10;67.30;;;24.40;;
29814;SDS011;16708;50.426;7.664;2024-01-11T22:19:04;76.70;;;25.50;;
29814;SDS011;16708;50.426;7.664;2024-01-11T22:23:59;62.00;;;23.70;;
29814;SDS011;16708;50.426;7.664;2024-01-11T22:28:53;61.10;;;22.70;;
29814;SDS011;16708;50.426;7.664;2024-01-11T22:33:47;62.30;;;23.10;;
29814;SDS011;16708;50.426;7.664;2024-01-11T22:38:40;61.70;;;23.10;;
29814;SDS011;16708;50.426;7.664;2024-01-11T22:43:34;63.00;;;23.90;;
29814;SDS011;16708;50.426;7.664;2024-01-11T22:53:21;69.00;;;25.10;;
29814;SDS011;16708;50.426;7.664;2024-01-11T22:58:15;71.30;;;26.10;;
29814;SDS011;16708;50.426;7.664;2024-01-11T23:03:07;74.90;;;26.40;;
29814;SDS011;16708;50.426;7.664;2024-01-11T23:08:01;65.20;;;23.80;;
29814;SDS011;16708;50.426;7.664;2024-01-11T23:12:55;62.00;;;23.30;;
29814;SDS011;16708;50.426;7.664;2024-01-11T23:22:42;60.30;;;21.80;;
29814;SDS011;16708;50.426;7.664;2024-01-11T23:27:34;66.20;;;23.80;;
29814;SDS011;16708;50.426;7.664;2024-01-11T23:32:29;63.80;;;23.90;;
29814;SDS011;16708;50.426;7.664;2024-01-11T23:37:23;60.90;;;21.90;;
29814;SDS011;16708;50.426;7.664;2024-01-11T23:42:16;67.70;;;24.20;;
29814;SDS011;16708;50.426;7.664;2024-01-11T23:47:11;75.10;;;26.70;;
29814;SDS011;16708;50.426;7.664;2024-01-11T23:52:05;70.40;;;25.30;;
29814;SDS011;16708;50.426;7.664;2024-01-11T23:57:00;75.30;;;25.60;;
